createdAt,value
2019-03-15T03:14:27.853Z,997.97
2019-03-15T03:15:27.836Z,997.94
2019-03-15T03:16:27.796Z,997.94
2019-03-15T03:17:27.807Z,997.93
2019-03-15T03:18:27.785Z,997.93
2019-03-15T03:19:28.322Z,997.92
2019-03-15T03:20:27.754Z,997.91
2019-03-15T03:21:27.763Z,997.95
2019-03-15T03:22:27.757Z,998.00
2019-03-15T03:23:27.733Z,998.04
2019-03-15T03:24:27.742Z,998.05
2019-03-15T03:25:27.732Z,998.11
2019-03-15T03:26:27.700Z,998.13
2019-03-15T03:27:27.693Z,998.13
2019-03-15T03:28:28.079Z,998.14
2019-03-15T03:29:27.682Z,998.20
2019-03-15T03:30:27.681Z,998.16
2019-03-15T03:31:27.671Z,998.19
2019-03-15T03:32:27.633Z,998.21
2019-03-15T03:33:27.633Z,998.21
2019-03-15T03:34:27.633Z,998.19
2019-03-15T03:35:27.628Z,998.19
2019-03-15T03:36:27.637Z,998.20
2019-03-15T03:37:27.593Z,998.21
2019-03-15T03:38:27.593Z,998.24
2019-03-15T03:39:27.578Z,998.26
2019-03-15T03:40:29.134Z,998.18
2019-03-15T03:41:27.564Z,998.24
2019-03-15T03:42:27.564Z,998.25
2019-03-15T03:43:27.540Z,998.22
2019-03-15T03:44:27.532Z,998.20
2019-03-15T03:45:27.526Z,998.17
2019-03-15T03:46:27.534Z,998.19
2019-03-15T03:47:27.541Z,998.23
2019-03-15T03:48:27.502Z,998.22
2019-03-15T03:49:27.616Z,998.21
2019-03-15T03:50:27.489Z,998.17
2019-03-15T03:51:27.472Z,998.12
2019-03-15T03:52:27.515Z,998.13
2019-03-15T03:53:27.451Z,998.08
2019-03-15T03:54:27.451Z,998.08
2019-03-15T03:55:27.439Z,998.09
2019-03-15T03:56:27.430Z,998.10
2019-03-15T03:57:27.431Z,998.09
2019-03-15T03:58:27.477Z,998.11
2019-03-15T03:59:27.403Z,998.09
2019-03-15T04:00:27.410Z,998.15
2019-03-15T04:01:27.385Z,998.16
2019-03-15T04:02:27.389Z,998.16
2019-03-15T04:03:27.378Z,998.18
2019-03-15T04:04:27.359Z,998.11
2019-03-15T04:05:27.375Z,998.12
2019-03-15T04:06:27.366Z,998.08
2019-03-15T04:07:27.351Z,998.09
2019-03-15T04:08:27.330Z,998.11
2019-03-15T04:09:27.350Z,998.15
2019-03-15T04:10:27.372Z,998.13
2019-03-15T04:11:27.314Z,998.16
2019-03-15T04:12:27.300Z,998.11
2019-03-15T04:13:27.322Z,998.10
2019-03-15T04:14:27.279Z,998.13
2019-03-15T04:15:27.279Z,998.20
2019-03-15T04:16:27.290Z,998.18
2019-03-15T04:17:27.258Z,998.25
2019-03-15T04:18:27.252Z,998.24
2019-03-15T04:19:27.238Z,998.26
2019-03-15T04:20:27.233Z,998.29
2019-03-15T04:21:27.218Z,998.28
2019-03-15T04:22:27.216Z,998.30
2019-03-15T04:23:27.203Z,998.27
2019-03-15T04:24:27.191Z,998.29
2019-03-15T04:25:27.216Z,998.27
2019-03-15T04:26:27.177Z,998.23
2019-03-15T04:27:27.167Z,998.21
2019-03-15T04:28:27.165Z,998.20
2019-03-15T04:29:27.156Z,998.18
2019-03-15T04:30:27.255Z,998.24
2019-03-15T04:31:27.130Z,998.19
2019-03-15T04:32:27.133Z,998.20
2019-03-15T04:33:27.118Z,998.16
2019-03-15T04:34:28.505Z,998.24
2019-03-15T04:35:27.262Z,998.24
2019-03-15T04:36:27.111Z,998.21
2019-03-15T04:37:27.125Z,998.21
2019-03-15T04:38:27.092Z,998.20
2019-03-15T04:39:27.065Z,998.16
2019-03-15T04:40:27.068Z,998.12
2019-03-15T04:41:27.052Z,998.14
2019-03-15T04:42:27.059Z,998.12
2019-03-15T04:43:27.053Z,998.12
2019-03-15T04:44:27.022Z,998.07
2019-03-15T04:45:27.028Z,998.06
2019-03-15T04:46:27.009Z,998.12
2019-03-15T04:47:27.007Z,998.12
2019-03-15T04:48:26.996Z,998.11
2019-03-15T04:49:26.989Z,998.11
2019-03-15T04:50:26.979Z,998.10
2019-03-15T04:51:26.970Z,998.10
2019-03-15T04:52:27.032Z,998.18
2019-03-15T04:53:26.949Z,998.13
2019-03-15T04:54:26.944Z,998.12
2019-03-15T04:55:26.943Z,998.11
2019-03-15T04:56:26.944Z,998.13
2019-03-15T04:57:26.915Z,998.07
2019-03-15T04:58:26.915Z,998.16
2019-03-15T04:59:26.904Z,998.12
2019-03-15T05:00:26.899Z,998.15
2019-03-15T05:01:26.880Z,998.08
2019-03-15T05:02:26.881Z,998.12
2019-03-15T05:03:26.887Z,998.12
2019-03-15T05:04:26.879Z,998.12
2019-03-15T05:05:26.857Z,998.09
2019-03-15T05:06:26.845Z,998.07
2019-03-15T05:07:26.833Z,998.08
2019-03-15T05:08:26.831Z,998.05
2019-03-15T05:09:26.848Z,998.03
2019-03-15T05:10:26.824Z,998.08
2019-03-15T05:11:26.802Z,998.13
2019-03-15T05:12:26.791Z,998.11
2019-03-15T05:13:26.790Z,998.08
2019-03-15T05:14:26.785Z,998.03
2019-03-15T05:15:26.775Z,998.04
2019-03-15T05:16:26.778Z,998.04
2019-03-15T05:17:26.750Z,998.06
2019-03-15T05:18:26.745Z,998.08
2019-03-15T05:19:26.736Z,998.06
2019-03-15T05:20:26.741Z,998.08
2019-03-15T05:21:26.729Z,998.07
2019-03-15T05:22:26.721Z,998.05
2019-03-15T05:23:26.712Z,998.08
2019-03-15T05:24:26.699Z,998.07
2019-03-15T05:25:29.711Z,998.05
2019-03-15T05:26:26.688Z,998.06
2019-03-15T05:27:26.681Z,998.05
2019-03-15T05:28:26.658Z,998.10
2019-03-15T05:29:26.655Z,998.03
2019-03-15T05:30:26.675Z,998.08
2019-03-15T05:31:26.637Z,998.06
2019-03-15T05:32:26.628Z,997.98
2019-03-15T05:33:26.619Z,997.98
2019-03-15T05:34:26.614Z,998.05
2019-03-15T05:35:26.611Z,998.06
2019-03-15T05:36:26.592Z,998.04
2019-03-15T05:37:26.585Z,998.01
2019-03-15T05:38:26.573Z,998.06
2019-03-15T05:39:26.559Z,998.03
2019-03-15T05:40:26.563Z,998.02
2019-03-15T05:41:26.558Z,997.95
2019-03-15T05:42:26.548Z,997.99
2019-03-15T05:43:26.542Z,997.97
2019-03-15T05:44:26.529Z,997.93
2019-03-15T05:45:26.519Z,997.95
2019-03-15T05:46:26.511Z,997.90
2019-03-15T05:47:26.512Z,997.97
2019-03-15T05:48:26.491Z,997.97
2019-03-15T05:49:26.494Z,997.95
2019-03-15T05:50:26.518Z,997.95
2019-03-15T05:51:26.515Z,997.95
2019-03-15T05:52:26.468Z,997.96
2019-03-15T05:53:26.493Z,997.91
2019-03-15T05:54:26.443Z,997.94
2019-03-15T05:55:26.429Z,997.95
2019-03-15T05:56:26.425Z,997.94
2019-03-15T05:57:26.421Z,997.90
2019-03-15T05:58:26.417Z,997.92
2019-03-15T05:59:26.393Z,997.91
2019-03-15T06:00:26.385Z,997.94
2019-03-15T06:01:26.378Z,997.82
2019-03-15T06:02:26.373Z,997.86
2019-03-15T06:03:26.369Z,997.83
2019-03-15T06:04:26.363Z,997.78
2019-03-15T06:05:26.350Z,997.83
2019-03-15T06:06:26.334Z,997.82
2019-03-15T06:07:26.329Z,997.84
2019-03-15T06:08:27.719Z,997.85
2019-03-15T06:09:26.314Z,997.84
2019-03-15T06:10:26.300Z,997.85
2019-03-15T06:11:26.293Z,997.84
2019-03-15T06:12:26.281Z,997.84
2019-03-15T06:13:26.282Z,997.75
2019-03-15T06:14:26.271Z,997.81
2019-03-15T06:15:26.266Z,997.85
2019-03-15T06:16:26.267Z,997.80
2019-03-15T06:17:26.241Z,997.74
2019-03-15T06:18:26.234Z,997.82
2019-03-15T06:19:26.221Z,997.82
2019-03-15T06:20:26.222Z,997.79
2019-03-15T06:21:26.260Z,997.80
2019-03-15T06:22:26.202Z,997.78
2019-03-15T06:23:26.195Z,997.77
2019-03-15T06:24:26.180Z,997.73
2019-03-15T06:25:26.252Z,997.70
2019-03-15T06:26:26.174Z,997.76
2019-03-15T06:27:26.161Z,997.68
2019-03-15T06:28:26.148Z,997.72
2019-03-15T06:29:26.162Z,997.76
2019-03-15T06:30:26.143Z,997.73
2019-03-15T06:31:26.148Z,997.70
2019-03-15T06:32:26.113Z,997.67
2019-03-15T06:33:28.566Z,997.66
2019-03-15T06:34:26.101Z,997.72
2019-03-15T06:35:26.097Z,997.73
2019-03-15T06:36:26.084Z,997.63
2019-03-15T06:37:26.072Z,997.70
2019-03-15T06:38:26.102Z,997.67
2019-03-15T06:39:26.059Z,997.60
2019-03-15T06:40:26.042Z,997.58
2019-03-15T06:41:26.037Z,997.56
2019-03-15T06:42:26.034Z,997.54
2019-03-15T06:43:26.029Z,997.59
2019-03-15T06:44:27.158Z,997.55
2019-03-15T06:45:26.003Z,997.54
2019-03-15T06:46:25.991Z,997.51
2019-03-15T06:47:25.981Z,997.59
2019-03-15T06:48:25.992Z,997.55
2019-03-15T06:49:25.986Z,997.52
2019-03-15T06:50:25.977Z,997.61
2019-03-15T06:51:25.989Z,997.58
2019-03-15T06:52:25.942Z,997.54
2019-03-15T06:53:25.958Z,997.55
2019-03-15T06:54:25.936Z,997.54
2019-03-15T06:55:25.974Z,997.51
2019-03-15T06:56:25.922Z,997.49
2019-03-15T06:57:25.897Z,997.50
2019-03-15T06:58:25.906Z,997.49
2019-03-15T06:59:25.893Z,997.40
2019-03-15T07:00:25.930Z,997.45
2019-03-15T07:01:25.883Z,997.45
2019-03-15T07:02:25.900Z,997.37
2019-03-15T07:03:25.913Z,997.39
2019-03-15T07:04:25.838Z,997.39
2019-03-15T07:05:25.847Z,997.38
2019-03-15T07:06:25.823Z,997.38
2019-03-15T07:07:25.827Z,997.33
2019-03-15T07:08:25.808Z,997.33
2019-03-15T07:09:25.826Z,997.39
2019-03-15T07:10:25.843Z,997.42
2019-03-15T07:11:25.781Z,997.37
2019-03-15T07:12:25.770Z,997.38
2019-03-15T07:13:25.771Z,997.35
2019-03-15T07:14:25.761Z,997.36
2019-03-15T07:15:25.756Z,997.28
2019-03-15T07:16:25.752Z,997.31
2019-03-15T07:17:25.759Z,997.23
2019-03-15T07:18:25.717Z,997.31
2019-03-15T07:19:30.216Z,997.28
2019-03-15T07:20:25.715Z,997.33
2019-03-15T07:21:25.696Z,997.31
2019-03-15T07:22:25.691Z,997.30
2019-03-15T07:23:25.697Z,997.31
2019-03-15T07:24:25.854Z,997.32
2019-03-15T07:25:25.755Z,997.27
2019-03-15T07:26:25.663Z,997.29
2019-03-15T07:27:25.671Z,997.28
2019-03-15T07:28:34.308Z,997.25
2019-03-15T07:30:30.145Z,997.25
2019-03-15T07:31:30.102Z,997.30
2019-03-15T07:32:31.066Z,997.24
2019-03-15T07:33:30.098Z,997.24
2019-03-15T07:34:30.075Z,997.20
2019-03-15T07:35:30.128Z,997.24
2019-03-15T07:36:30.070Z,997.15
2019-03-15T07:37:30.046Z,997.04
2019-03-15T07:38:30.043Z,997.05
2019-03-15T07:39:30.033Z,997.01
2019-03-15T07:40:30.034Z,997.02
2019-03-15T07:41:30.012Z,997.02
2019-03-15T07:42:30.010Z,996.95
2019-03-15T07:43:30.023Z,996.99
2019-03-15T07:44:29.998Z,996.98
2019-03-15T07:45:29.982Z,996.96
2019-03-15T07:46:29.973Z,996.92
2019-03-15T07:47:29.969Z,996.97
2019-03-15T07:48:29.964Z,996.98
2019-03-15T07:49:29.961Z,996.94
2019-03-15T07:50:29.943Z,996.90
2019-03-15T07:51:29.932Z,996.92
2019-03-15T07:52:29.931Z,996.92
2019-03-15T07:53:29.933Z,997.02
2019-03-15T07:54:37.860Z,996.94
2019-03-15T07:55:29.896Z,996.91
2019-03-15T07:56:29.891Z,997.01
2019-03-15T07:57:29.887Z,996.94
2019-03-15T07:58:29.880Z,996.91
2019-03-15T07:59:29.874Z,996.94
2019-03-15T08:00:29.880Z,997.04
2019-03-15T08:01:29.852Z,997.05
2019-03-15T08:02:29.847Z,997.08
2019-03-15T08:03:29.845Z,997.11
2019-03-15T08:04:29.833Z,997.07
2019-03-15T08:05:29.818Z,997.10
2019-03-15T08:06:34.887Z,997.08
2019-03-15T08:07:36.157Z,997.00
2019-03-15T08:08:29.879Z,996.97
2019-03-15T08:09:29.789Z,997.03
2019-03-15T08:10:29.789Z,997.00
2019-03-15T08:11:29.780Z,997.07
2019-03-15T08:12:29.771Z,997.17
2019-03-15T08:13:29.759Z,997.13
2019-03-15T08:14:29.745Z,997.03
2019-03-15T08:15:29.747Z,997.02
2019-03-15T08:16:29.730Z,997.06
2019-03-15T08:17:29.743Z,996.95
2019-03-15T08:18:29.721Z,996.95
2019-03-15T08:19:29.707Z,997.02
2019-03-15T08:20:29.713Z,996.99
2019-03-15T08:21:29.707Z,997.03
2019-03-15T08:22:29.726Z,996.99
2019-03-15T08:23:29.693Z,996.88
2019-03-15T08:24:29.676Z,996.91
2019-03-15T08:25:29.665Z,996.98
2019-03-15T08:26:30.323Z,997.01
2019-03-15T08:27:29.649Z,996.84
2019-03-15T08:28:29.637Z,996.86
2019-03-15T08:29:29.635Z,996.90
2019-03-15T08:30:29.620Z,996.90
2019-03-15T08:31:29.620Z,996.84
2019-03-15T08:32:29.604Z,996.90
2019-03-15T08:33:29.665Z,996.91
2019-03-15T08:34:29.592Z,996.89
2019-03-15T08:35:29.582Z,996.93
2019-03-15T08:36:29.577Z,996.86
2019-03-15T08:37:29.571Z,996.89
2019-03-15T08:38:29.587Z,996.86
2019-03-15T08:39:29.553Z,996.85
2019-03-15T08:40:29.548Z,996.83
2019-03-15T08:41:29.554Z,996.88
2019-03-15T08:42:29.543Z,996.91
2019-03-15T08:43:29.521Z,996.87
2019-03-15T08:44:29.517Z,996.82
2019-03-15T08:45:29.505Z,996.81
2019-03-15T08:46:29.491Z,996.81
2019-03-15T08:47:29.486Z,996.80
2019-03-15T08:48:31.887Z,996.74
2019-03-15T08:49:29.471Z,996.74
2019-03-15T08:50:29.485Z,996.75
2019-03-15T08:51:29.468Z,996.77
2019-03-15T08:52:29.454Z,996.79
2019-03-15T08:53:29.470Z,996.73
2019-03-15T08:54:29.606Z,996.68
2019-03-15T08:55:29.439Z,996.72
2019-03-15T08:56:29.418Z,996.67
2019-03-15T08:57:29.411Z,996.65
2019-03-15T08:58:29.426Z,996.62
2019-03-15T08:59:29.567Z,996.65
2019-03-15T09:00:29.401Z,996.63
2019-03-15T09:01:29.377Z,996.73
2019-03-15T09:02:29.367Z,996.68
2019-03-15T09:03:29.360Z,996.66
2019-03-15T09:04:29.356Z,996.77
2019-03-15T09:05:29.382Z,996.78
2019-03-15T09:06:29.342Z,996.73
2019-03-15T09:07:29.333Z,996.67
2019-03-15T09:08:29.337Z,996.77
2019-03-15T09:09:29.378Z,996.65
2019-03-15T09:10:29.310Z,996.72
2019-03-15T09:11:29.300Z,996.78
2019-03-15T09:12:29.299Z,996.78
2019-03-15T09:13:29.288Z,996.73
2019-03-15T09:14:29.286Z,996.76
2019-03-15T09:15:30.913Z,996.70
2019-03-15T09:16:29.285Z,996.71
2019-03-15T09:17:29.253Z,996.77
2019-03-15T09:18:29.239Z,996.75
2019-03-15T09:19:29.508Z,996.81
2019-03-15T09:20:30.358Z,996.73
2019-03-15T09:21:29.226Z,996.78
2019-03-15T09:22:29.221Z,996.68
2019-03-15T09:23:29.204Z,996.71
2019-03-15T09:24:29.201Z,996.63
2019-03-15T09:25:29.197Z,996.66
2019-03-15T09:26:29.201Z,996.75
2019-03-15T09:27:29.189Z,996.68
2019-03-15T09:28:29.172Z,996.77
2019-03-15T09:29:29.175Z,996.70
2019-03-15T09:30:29.157Z,996.73
2019-03-15T09:31:33.620Z,996.70
2019-03-15T09:32:29.146Z,996.78
2019-03-15T09:33:29.164Z,996.78
2019-03-15T09:34:29.129Z,996.74
2019-03-15T09:35:29.117Z,996.68
2019-03-15T09:36:29.117Z,996.73
2019-03-15T09:37:29.110Z,996.71
2019-03-15T09:38:29.111Z,996.71
2019-03-15T09:39:29.092Z,996.75
2019-03-15T09:40:29.084Z,996.73
2019-03-15T09:41:33.445Z,996.71
2019-03-15T09:42:29.076Z,996.72
2019-03-15T09:43:29.061Z,996.71
2019-03-15T09:44:29.054Z,996.70
2019-03-15T09:45:29.081Z,996.72
2019-03-15T09:46:29.035Z,996.75
2019-03-15T09:47:29.040Z,996.64
2019-03-15T09:48:29.029Z,996.67
2019-03-15T09:49:29.018Z,996.71
2019-03-15T09:50:36.135Z,996.63
2019-03-15T09:51:29.036Z,996.67
2019-03-15T09:52:29.002Z,996.64
2019-03-15T09:53:28.988Z,996.67
2019-03-15T09:54:28.990Z,996.62
2019-03-15T09:55:33.131Z,996.70
2019-03-15T09:56:28.971Z,996.69
2019-03-15T09:57:38.625Z,996.65
2019-03-15T09:59:33.450Z,996.67
2019-03-15T10:00:33.421Z,996.68
2019-03-15T10:01:35.078Z,996.73
2019-03-15T10:02:33.412Z,996.68
2019-03-15T10:03:33.396Z,996.73
2019-03-15T10:04:35.856Z,996.76
2019-03-15T10:05:33.389Z,996.77
2019-03-15T10:06:33.391Z,996.69
2019-03-15T10:07:38.829Z,996.73
2019-03-15T10:08:33.379Z,996.65
2019-03-15T10:09:45.335Z,996.71
2019-03-15T10:10:33.403Z,996.72
2019-03-15T10:11:33.345Z,996.69
2019-03-15T10:12:33.340Z,996.67
2019-03-15T10:13:33.336Z,996.80
2019-03-15T10:14:33.329Z,996.75
2019-03-15T10:15:33.392Z,996.76
2019-03-15T10:16:33.334Z,996.78
2019-03-15T10:17:33.310Z,996.78
2019-03-15T10:18:33.300Z,996.68
2019-03-15T10:19:33.294Z,996.73
2019-03-15T10:20:33.305Z,996.80
2019-03-15T10:21:33.285Z,996.82
2019-03-15T10:22:33.317Z,996.83
2019-03-15T10:23:33.271Z,996.79
2019-03-15T10:24:33.273Z,996.82
2019-03-15T10:25:46.237Z,996.79
2019-03-15T10:26:33.250Z,996.73
2019-03-15T10:27:33.244Z,996.87
2019-03-15T10:28:33.250Z,996.83
2019-03-15T10:29:33.236Z,996.80
2019-03-15T10:30:33.220Z,996.78
2019-03-15T10:31:33.227Z,996.79
2019-03-15T10:32:33.216Z,996.77
2019-03-15T10:33:33.201Z,996.88
2019-03-15T10:34:35.581Z,996.79
2019-03-15T10:35:33.190Z,996.77
2019-03-15T10:36:34.699Z,996.92
2019-03-15T10:37:33.182Z,996.85
2019-03-15T10:38:33.169Z,996.82
2019-03-15T10:39:33.161Z,996.89
2019-03-15T10:40:33.169Z,996.87
2019-03-15T10:41:33.156Z,996.90
2019-03-15T10:42:33.168Z,996.79
2019-03-15T10:43:33.158Z,996.91
2019-03-15T10:44:33.135Z,996.98
2019-03-15T10:45:33.126Z,996.97
2019-03-15T10:46:33.132Z,996.97
2019-03-15T10:47:33.120Z,996.98
2019-03-15T10:48:33.110Z,996.99
2019-03-15T10:49:33.105Z,996.81
2019-03-15T10:50:33.093Z,996.91
2019-03-15T10:51:33.096Z,996.89
2019-03-15T10:52:33.076Z,996.85
2019-03-15T10:53:33.097Z,996.86
2019-03-15T10:54:33.086Z,996.90
2019-03-15T10:55:33.061Z,996.94
2019-03-15T10:56:33.055Z,996.95
2019-03-15T10:57:33.057Z,996.93
2019-03-15T10:58:33.045Z,996.97
2019-03-15T10:59:33.031Z,996.95
2019-03-15T11:00:33.035Z,996.90
2019-03-15T11:01:33.054Z,996.99
2019-03-15T11:02:33.012Z,996.85
2019-03-15T11:03:33.006Z,996.95
2019-03-15T11:04:33.036Z,996.88
2019-03-15T11:05:32.994Z,996.94
2019-03-15T11:06:32.988Z,997.09
2019-03-15T11:07:32.988Z,996.96
2019-03-15T11:08:32.975Z,997.00
2019-03-15T11:09:32.971Z,996.99
2019-03-15T11:10:32.965Z,997.01
2019-03-15T11:11:32.979Z,996.96
2019-03-15T11:12:32.969Z,997.01
2019-03-15T11:13:32.939Z,996.94
2019-03-15T11:14:32.943Z,997.03
2019-03-15T11:15:32.929Z,997.00
2019-03-15T11:16:32.931Z,996.92
2019-03-15T11:17:32.921Z,997.12
2019-03-15T11:18:32.913Z,996.94
2019-03-15T11:19:32.932Z,997.05
2019-03-15T11:20:32.921Z,997.06
2019-03-15T11:21:32.908Z,997.02
2019-03-15T11:22:32.892Z,997.13
2019-03-15T11:23:32.882Z,997.03
2019-03-15T11:24:32.872Z,997.03
2019-03-15T11:25:32.878Z,997.13
2019-03-15T11:26:32.884Z,997.16
2019-03-15T11:27:32.874Z,997.13
2019-03-15T11:28:32.848Z,997.15
2019-03-15T11:29:32.845Z,997.24
2019-03-15T11:30:32.839Z,997.10
2019-03-15T11:31:32.845Z,997.16
2019-03-15T11:32:32.926Z,997.17
2019-03-15T11:33:32.827Z,997.20
2019-03-15T11:34:32.850Z,997.18
2019-03-15T11:35:32.855Z,997.16
2019-03-15T11:36:32.861Z,997.17
2019-03-15T11:37:32.802Z,997.17
2019-03-15T11:38:32.792Z,997.15
2019-03-15T11:39:32.778Z,997.17
2019-03-15T11:40:32.834Z,997.19
2019-03-15T11:41:32.772Z,997.22
2019-03-15T11:42:32.764Z,997.17
2019-03-15T11:43:32.768Z,997.27
2019-03-15T11:44:32.748Z,997.22
2019-03-15T11:45:32.767Z,997.29
2019-03-15T11:46:32.751Z,997.30
2019-03-15T11:47:50.017Z,997.21
2019-03-15T11:48:32.738Z,997.28
2019-03-15T11:49:32.719Z,997.23
2019-03-15T11:50:32.737Z,997.28
2019-03-15T11:51:32.722Z,997.24
2019-03-15T11:52:32.772Z,997.33
2019-03-15T11:53:32.696Z,997.26
2019-03-15T11:54:32.693Z,997.27
2019-03-15T11:55:32.702Z,997.32
2019-03-15T11:56:32.692Z,997.35
2019-03-15T11:57:32.673Z,997.32
2019-03-15T11:58:32.666Z,997.33
2019-03-15T11:59:35.988Z,997.34
2019-03-15T12:00:32.656Z,997.28
2019-03-15T12:01:32.670Z,997.21
2019-03-15T12:02:32.644Z,997.23
2019-03-15T12:03:32.650Z,997.25
2019-03-15T12:04:32.641Z,997.25
2019-03-15T12:05:32.635Z,997.24
2019-03-15T12:06:32.619Z,997.22
2019-03-15T12:07:32.606Z,997.23
2019-03-15T12:08:32.646Z,997.27
2019-03-15T12:09:32.605Z,997.17
2019-03-15T12:10:32.594Z,997.18
2019-03-15T12:11:32.588Z,997.17
2019-03-15T12:12:32.606Z,997.26
2019-03-15T12:13:32.583Z,997.21
2019-03-15T12:14:41.038Z,997.23
2019-03-15T12:15:32.561Z,997.26
2019-03-15T12:16:32.564Z,997.22
2019-03-15T12:17:32.554Z,997.32
2019-03-15T12:18:32.556Z,997.28
2019-03-15T12:19:32.544Z,997.22
2019-03-15T12:20:32.601Z,997.24
2019-03-15T12:21:32.529Z,997.16
2019-03-15T12:22:32.540Z,997.25
2019-03-15T12:23:32.514Z,997.32
2019-03-15T12:24:32.518Z,997.39
2019-03-15T12:25:32.505Z,997.36
2019-03-15T12:26:40.862Z,997.28
2019-03-15T12:27:41.136Z,997.34
2019-03-15T12:29:36.980Z,997.39
2019-03-15T12:30:36.952Z,997.39
2019-03-15T12:31:36.945Z,997.53
2019-03-15T12:32:36.949Z,997.47
2019-03-15T12:33:36.944Z,997.45
2019-03-15T12:34:36.925Z,997.44
2019-03-15T12:35:36.922Z,997.52
2019-03-15T12:36:36.928Z,997.50
2019-03-15T12:37:36.912Z,997.52
2019-03-15T12:38:36.913Z,997.45
2019-03-15T12:39:36.901Z,997.53
2019-03-15T12:40:36.896Z,997.52
2019-03-15T12:41:36.891Z,997.53
2019-03-15T12:42:36.882Z,997.62
2019-03-15T12:43:36.936Z,997.52
2019-03-15T12:44:36.877Z,997.55
2019-03-15T12:45:36.866Z,997.63
2019-03-15T12:46:36.875Z,997.65
2019-03-15T12:47:36.865Z,997.64
2019-03-15T12:48:36.847Z,997.70
2019-03-15T12:49:36.850Z,997.67
2019-03-15T12:50:36.838Z,997.69
2019-03-15T12:51:36.826Z,997.69
2019-03-15T12:52:46.463Z,997.64
2019-03-15T12:53:36.814Z,997.60
2019-03-15T12:54:36.854Z,997.69
2019-03-15T12:55:36.805Z,997.79
2019-03-15T12:56:36.805Z,997.67
2019-03-15T12:57:36.799Z,997.82
2019-03-15T12:58:36.804Z,997.75
2019-03-15T12:59:36.780Z,997.75
2019-03-15T13:00:36.771Z,997.74
2019-03-15T13:01:36.806Z,997.75
2019-03-15T13:02:36.763Z,997.72
2019-03-15T13:03:36.758Z,997.56
2019-03-15T13:04:36.751Z,997.61
2019-03-15T13:05:36.756Z,997.69
2019-03-15T13:06:36.755Z,997.61
2019-03-15T13:07:36.748Z,997.72
2019-03-15T13:08:36.727Z,997.69
2019-03-15T13:09:36.744Z,997.72
2019-03-15T13:10:36.717Z,997.76
2019-03-15T13:11:36.717Z,997.66
2019-03-15T13:12:36.700Z,997.83
2019-03-15T13:13:36.705Z,997.82
2019-03-15T13:14:36.700Z,997.83
2019-03-15T13:15:36.690Z,997.85
2019-03-15T13:16:36.681Z,997.81
2019-03-15T13:17:36.672Z,997.82
2019-03-15T13:18:36.668Z,997.77
2019-03-15T13:19:36.663Z,997.88
2019-03-15T13:20:36.665Z,997.86
2019-03-15T13:21:36.675Z,997.83
2019-03-15T13:22:36.647Z,997.88
2019-03-15T13:23:36.634Z,997.76
2019-03-15T13:24:36.635Z,997.91
2019-03-15T13:25:36.620Z,997.85
2019-03-15T13:26:36.622Z,997.96
2019-03-15T13:27:36.617Z,997.84
2019-03-15T13:28:36.631Z,997.84
2019-03-15T13:29:36.621Z,997.88
2019-03-15T13:30:36.609Z,997.89
2019-03-15T13:31:36.588Z,997.93
2019-03-15T13:32:36.582Z,997.83
2019-03-15T13:33:36.583Z,997.84
2019-03-15T13:34:36.576Z,997.87
2019-03-15T13:35:36.579Z,997.92
2019-03-15T13:36:36.567Z,997.92
2019-03-15T13:37:36.560Z,997.82
2019-03-15T13:38:36.557Z,997.89
2019-03-15T13:39:36.543Z,997.93
2019-03-15T13:40:36.549Z,997.95
2019-03-15T13:41:36.530Z,997.88
2019-03-15T13:42:36.556Z,997.93
2019-03-15T13:43:36.558Z,997.96
2019-03-15T13:44:36.529Z,997.96
2019-03-15T13:45:36.518Z,997.87
2019-03-15T13:46:36.528Z,997.98
2019-03-15T13:47:36.511Z,997.95
2019-03-15T13:48:36.541Z,997.95
2019-03-15T13:49:36.507Z,998.03
2019-03-15T13:50:36.488Z,998.03
2019-03-15T13:51:36.484Z,998.02
2019-03-15T13:52:36.515Z,998.12
2019-03-15T13:53:36.483Z,997.94
2019-03-15T13:54:36.463Z,998.00
2019-03-15T13:55:36.457Z,998.07
2019-03-15T13:56:36.467Z,998.06
2019-03-15T13:57:36.449Z,998.14
2019-03-15T13:58:36.433Z,998.09
2019-03-15T13:59:36.438Z,998.16
2019-03-15T14:00:36.427Z,998.10
2019-03-15T14:01:36.451Z,998.13
2019-03-15T14:02:36.421Z,998.00
2019-03-15T14:03:36.413Z,998.20
2019-03-15T14:04:36.402Z,998.08
2019-03-15T14:05:36.400Z,998.12
2019-03-15T14:06:36.393Z,998.08
2019-03-15T14:07:36.399Z,998.01
2019-03-15T14:08:36.374Z,998.01
2019-03-15T14:09:36.372Z,998.07
2019-03-15T14:10:48.647Z,998.00
2019-03-15T14:11:36.374Z,997.97
2019-03-15T14:12:36.376Z,998.02
2019-03-15T14:13:36.351Z,998.02
2019-03-15T14:14:36.346Z,997.89
2019-03-15T14:15:36.377Z,998.06
2019-03-15T14:16:36.344Z,998.06
2019-03-15T14:17:36.331Z,998.02
2019-03-15T14:18:36.324Z,998.12
2019-03-15T14:19:36.335Z,997.94
2019-03-15T14:20:36.338Z,998.08
2019-03-15T14:21:36.364Z,998.07
2019-03-15T14:22:36.302Z,998.06
2019-03-15T14:23:36.291Z,998.08
2019-03-15T14:24:36.300Z,998.00
2019-03-15T14:25:36.283Z,997.99
2019-03-15T14:26:36.279Z,998.09
2019-03-15T14:27:37.816Z,998.11
2019-03-15T14:28:36.264Z,998.14
2019-03-15T14:29:36.291Z,998.12
2019-03-15T14:30:36.255Z,998.14
2019-03-15T14:31:36.249Z,998.16
2019-03-15T14:32:36.244Z,998.13
2019-03-15T14:33:36.278Z,998.28
2019-03-15T14:34:36.232Z,998.16
2019-03-15T14:35:36.230Z,998.13
2019-03-15T14:36:36.247Z,998.21
2019-03-15T14:37:36.407Z,998.17
2019-03-15T14:38:36.353Z,998.15
2019-03-15T14:39:36.266Z,998.15
2019-03-15T14:40:36.298Z,998.23
2019-03-15T14:41:36.208Z,998.26
2019-03-15T14:42:36.291Z,998.21
2019-03-15T14:43:36.381Z,998.09
2019-03-15T14:44:36.275Z,998.18
2019-03-15T14:45:36.212Z,998.10
2019-03-15T14:46:36.196Z,998.03
2019-03-15T14:47:36.193Z,998.21
2019-03-15T14:48:36.169Z,998.20
2019-03-15T14:49:38.170Z,998.10
2019-03-15T14:50:36.136Z,998.10
2019-03-15T14:51:36.150Z,998.16
2019-03-15T14:52:36.133Z,998.18
2019-03-15T14:53:36.127Z,998.15
2019-03-15T14:54:36.156Z,998.11
2019-03-15T14:55:36.135Z,998.16
2019-03-15T14:56:36.137Z,998.14
2019-03-15T14:57:36.102Z,998.10
2019-03-15T14:58:36.096Z,998.18
2019-03-15T14:59:36.090Z,998.11
2019-03-15T15:00:36.111Z,998.14
2019-03-15T15:01:36.079Z,998.06
2019-03-15T15:02:36.073Z,998.13
2019-03-15T15:03:36.073Z,998.01
2019-03-15T15:04:36.099Z,998.16
2019-03-15T15:05:36.064Z,998.19
2019-03-15T15:06:36.070Z,998.18
2019-03-15T15:07:36.084Z,998.20
2019-03-15T15:08:36.053Z,998.21
2019-03-15T15:09:36.061Z,998.21
2019-03-15T15:10:36.025Z,998.34
2019-03-15T15:11:36.025Z,998.33
2019-03-15T15:12:36.047Z,998.16
2019-03-15T15:13:36.106Z,998.18
2019-03-15T15:14:36.002Z,998.44
2019-03-15T15:15:36.012Z,998.21
2019-03-15T15:16:36.019Z,998.14
2019-03-15T15:17:36.020Z,998.26
2019-03-15T15:18:36.002Z,998.31
2019-03-15T15:19:35.981Z,998.28
2019-03-15T15:20:36.004Z,998.30
2019-03-15T15:21:35.961Z,998.19
2019-03-15T15:22:35.972Z,998.26
2019-03-15T15:23:35.951Z,998.33
2019-03-15T15:24:35.951Z,998.21
2019-03-15T15:25:35.936Z,998.24
2019-03-15T15:26:35.945Z,998.30
2019-03-15T15:27:35.926Z,998.20
2019-03-15T15:28:35.920Z,998.20
2019-03-15T15:29:35.915Z,998.16
2019-03-15T15:30:35.902Z,998.14
2019-03-15T15:31:35.902Z,998.22
2019-03-15T15:32:35.894Z,998.27
2019-03-15T15:33:35.884Z,998.25
2019-03-15T15:34:35.882Z,998.21
2019-03-15T15:35:35.871Z,998.22
2019-03-15T15:36:35.904Z,998.30
2019-03-15T15:37:35.863Z,998.33
2019-03-15T15:38:35.864Z,998.22
2019-03-15T15:39:35.855Z,998.26
2019-03-15T15:40:35.848Z,998.29
2019-03-15T15:41:35.839Z,998.26
2019-03-15T15:42:35.838Z,998.30
2019-03-15T15:43:35.826Z,998.37
2019-03-15T15:44:35.834Z,998.32
2019-03-15T15:45:35.819Z,998.39